sensor_id;sensor_type;location;lat;lon;timestamp;temperature;humidity
71297;SHT31;59082;50.658;4.608;2023-07-29T04:29:12;20.61;96.02
71297;SHT31;59082;50.658;4.608;2023-07-29T04:31:38;20.67;96.08
71297;SHT31;59082;50.658;4.608;2023-07-29T04:34:04;20.57;96.16
71297;SHT31;59082;50.658;4.608;2023-07-29T04:36:30;18.58;99.99
71297;SHT31;59082;50.658;4.608;2023-07-29T04:38:55;19.43;99.59
71297;SHT31;59082;50.658;4.608;2023-07-29T04:41:21;19.06;99.99
71297;SHT31;59082;50.658;4.608;2023-07-29T04:43:46;19.85;98.35
71297;SHT31;59082;50.658;4.608;2023-07-29T04:46:12;20.16;97.54
71297;SHT31;59082;50.658;4.608;2023-07-29T04:48:37;20.08;97.16
71297;SHT31;59082;50.658;4.608;2023-07-29T04:51:03;20.29;97.24
71297;SHT31;59082;50.658;4.608;2023-07-29T04:53:28;19.92;96.97
71297;SHT31;59082;50.658;4.608;2023-07-29T04:55:54;20.22;97.07
71297;SHT31;59082;50.658;4.608;2023-07-29T04:58:19;19.54;98.76
71297;SHT31;59082;50.658;4.608;2023-07-29T05:00:46;19.05;99.99
71297;SHT31;59082;50.658;4.608;2023-07-29T05:03:12;18.92;99.99
71297;SHT31;59082;50.658;4.608;2023-07-29T05:05:37;19.34;98.08
71297;SHT31;59082;50.658;4.608;2023-07-29T05:08:03;19.91;97.20
71297;SHT31;59082;50.658;4.608;2023-07-29T05:10:28;19.86;96.25
71297;SHT31;59082;50.658;4.608;2023-07-29T05:12:54;19.68;96.94
71297;SHT31;59082;50.658;4.608;2023-07-29T05:15:20;19.81;96.47
71297;SHT31;59082;50.658;4.608;2023-07-29T05:17:45;19.85;96.48
71297;SHT31;59082;50.658;4.608;2023-07-29T05:20:11;19.81;96.47
71297;SHT31;59082;50.658;4.608;2023-07-29T05:22:37;19.92;96.57
71297;SHT31;59082;50.658;4.608;2023-07-29T05:25:02;20.12;96.65
71297;SHT31;59082;50.658;4.608;2023-07-29T05:27:28;20.29;96.19
71297;SHT31;59082;50.658;4.608;2023-07-29T05:29:53;20.56;95.90
71297;SHT31;59082;50.658;4.608;2023-07-29T05:32:19;20.58;95.97
71297;SHT31;59082;50.658;4.608;2023-07-29T05:34:44;20.68;95.98
71297;SHT31;59082;50.658;4.608;2023-07-29T05:37:10;20.67;96.19
71297;SHT31;59082;50.658;4.608;2023-07-29T05:39:36;20.70;95.70
71297;SHT31;59082;50.658;4.608;2023-07-29T05:42:02;20.94;95.83
71297;SHT31;59082;50.658;4.608;2023-07-29T05:44:28;21.42;95.64
71297;SHT31;59082;50.658;4.608;2023-07-29T05:46:54;21.67;95.27
71297;SHT31;59082;50.658;4.608;2023-07-29T05:49:20;21.71;95.38
71297;SHT31;59082;50.658;4.608;2023-07-29T05:51:45;21.98;95.60
71297;SHT31;59082;50.658;4.608;2023-07-29T05:54:11;22.00;95.67
71297;SHT31;59082;50.658;4.608;2023-07-29T05:56:36;22.00;95.76
71297;SHT31;59082;50.658;4.608;2023-07-29T05:59:02;20.95;99.05
71297;SHT31;59082;50.658;4.608;2023-07-29T06:01:27;19.86;99.99
71297;SHT31;59082;50.658;4.608;2023-07-29T06:03:53;20.77;99.99
71297;SHT31;59082;50.658;4.608;2023-07-29T06:06:18;21.80;96.69
71297;SHT31;59082;50.658;4.608;2023-07-29T06:08:44;21.29;96.94
71297;SHT31;59082;50.658;4.608;2023-07-29T06:11:09;20.61;99.99
71297;SHT31;59082;50.658;4.608;2023-07-29T06:13:35;22.04;96.11
71297;SHT31;59082;50.658;4.608;2023-07-29T06:16:00;22.49;95.62
71297;SHT31;59082;50.658;4.608;2023-07-29T06:18:26;22.18;95.23
71297;SHT31;59082;50.658;4.608;2023-07-29T06:20:51;22.04;95.44
71297;SHT31;59082;50.658;4.608;2023-07-29T06:23:17;21.91;95.09
71297;SHT31;59082;50.658;4.608;2023-07-29T06:25:42;22.24;94.82
71297;SHT31;59082;50.658;4.608;2023-07-29T06:28:09;22.29;95.09
71297;SHT31;59082;50.658;4.608;2023-07-29T06:30:34;22.25;95.12
71297;SHT31;59082;50.658;4.608;2023-07-29T06:33:00;22.49;94.85
71297;SHT31;59082;50.658;4.608;2023-07-29T06:35:26;22.52;95.05
71297;SHT31;59082;50.658;4.608;2023-07-29T06:37:51;22.57;95.08
71297;SHT31;59082;50.658;4.608;2023-07-29T06:40:17;22.38;93.87
71297;SHT31;59082;50.658;4.608;2023-07-29T06:42:42;23.07;94.48
71297;SHT31;59082;50.658;4.608;2023-07-29T06:45:08;23.51;92.98
71297;SHT31;59082;50.658;4.608;2023-07-29T06:47:34;23.70;90.41
71297;SHT31;59082;50.658;4.608;2023-07-29T06:49:59;24.67;93.33
71297;SHT31;59082;50.658;4.608;2023-07-29T06:52:25;24.44;92.95
71297;SHT31;59082;50.658;4.608;2023-07-29T06:54:53;24.27;93.82
71297;SHT31;59082;50.658;4.608;2023-07-29T06:57:18;24.10;92.80
71297;SHT31;59082;50.658;4.608;2023-07-29T06:59:44;24.03;92.94
71297;SHT31;59082;50.658;4.608;2023-07-29T07:02:09;23.86;91.92
71297;SHT31;59082;50.658;4.608;2023-07-29T07:04:35;24.34;92.86
71297;SHT31;59082;50.658;4.608;2023-07-29T07:07:06;24.64;92.93
71297;SHT31;59082;50.658;4.608;2023-07-29T07:09:31;24.41;92.92
71297;SHT31;59082;50.658;4.608;2023-07-29T07:11:57;24.17;93.29
71297;SHT31;59082;50.658;4.608;2023-07-29T07:14:22;23.85;92.91
71297;SHT31;59082;50.658;4.608;2023-07-29T07:16:48;23.73;93.17
71297;SHT31;59082;50.658;4.608;2023-07-29T07:19:13;24.21;93.16
71297;SHT31;59082;50.658;4.608;2023-07-29T07:21:39;24.33;91.78
71297;SHT31;59082;50.658;4.608;2023-07-29T07:24:04;24.96;92.04
71297;SHT31;59082;50.658;4.608;2023-07-29T07:26:30;25.22;91.30
71297;SHT31;59082;50.658;4.608;2023-07-29T07:28:55;25.46;90.59
71297;SHT31;59082;50.658;4.608;2023-07-29T07:31:21;24.73;89.23
71297;SHT31;59082;50.658;4.608;2023-07-29T07:33:47;27.05;89.53
71297;SHT31;59082;50.658;4.608;2023-07-29T07:36:12;27.59;86.89
71297;SHT31;59082;50.658;4.608;2023-07-29T07:38:38;27.42;87.84
71297;SHT31;59082;50.658;4.608;2023-07-29T07:41:03;27.01;86.22
71297;SHT31;59082;50.658;4.608;2023-07-29T07:43:29;25.88;86.05
71297;SHT31;59082;50.658;4.608;2023-07-29T07:45:58;26.02;84.33
71297;SHT31;59082;50.658;4.608;2023-07-29T07:48:25;26.67;85.95
71297;SHT31;59082;50.658;4.608;2023-07-29T07:50:50;26.56;85.05
71297;SHT31;59082;50.658;4.608;2023-07-29T07:53:16;26.21;85.71
71297;SHT31;59082;50.658;4.608;2023-07-29T07:55:41;26.76;84.40
71297;SHT31;59082;50.658;4.608;2023-07-29T07:58:07;26.49;83.85
71297;SHT31;59082;50.658;4.608;2023-07-29T08:00:32;26.44;84.87
71297;SHT31;59082;50.658;4.608;2023-07-29T08:02:58;26.90;83.23
71297;SHT31;59082;50.658;4.608;2023-07-29T08:05:23;27.31;85.02
71297;SHT31;59082;50.658;4.608;2023-07-29T08:07:49;27.67;84.24
71297;SHT31;59082;50.658;4.608;2023-07-29T08:10:15;27.29;81.39
71297;SHT31;59082;50.658;4.608;2023-07-29T08:12:40;27.63;81.89
71297;SHT31;59082;50.658;4.608;2023-07-29T08:15:06;27.57;81.52
71297;SHT31;59082;50.658;4.608;2023-07-29T08:17:32;28.76;82.99
71297;SHT31;59082;50.658;4.608;2023-07-29T08:19:57;29.44;78.41
71297;SHT31;59082;50.658;4.608;2023-07-29T08:22:23;29.80;79.06
71297;SHT31;59082;50.658;4.608;2023-07-29T08:24:48;29.88;78.55
71297;SHT31;59082;50.658;4.608;2023-07-29T08:27:14;29.45;79.56
71297;SHT31;59082;50.658;4.608;2023-07-29T08:29:39;30.89;80.54
71297;SHT31;59082;50.658;4.608;2023-07-29T08:32:05;29.66;78.52
71297;SHT31;59082;50.658;4.608;2023-07-29T08:34:30;29.88;79.31
71297;SHT31;59082;50.658;4.608;2023-07-29T08:36:56;29.31;79.42
71297;SHT31;59082;50.658;4.608;2023-07-29T08:39:21;28.62;78.76
71297;SHT31;59082;50.658;4.608;2023-07-29T08:42:07;29.31;78.53
71297;SHT31;59082;50.658;4.608;2023-07-29T08:44:43;29.55;77.77
71297;SHT31;59082;50.658;4.608;2023-07-29T08:47:09;30.45;76.09
71297;SHT31;59082;50.658;4.608;2023-07-29T08:49:37;32.91;74.46
71297;SHT31;59082;50.658;4.608;2023-07-29T08:52:04;32.84;72.81
71297;SHT31;59082;50.658;4.608;2023-07-29T08:54:30;30.27;75.46
71297;SHT31;59082;50.658;4.608;2023-07-29T08:56:55;29.68;78.08
71297;SHT31;59082;50.658;4.608;2023-07-29T08:59:21;28.41;80.20
71297;SHT31;59082;50.658;4.608;2023-07-29T09:01:47;27.32;78.71
71297;SHT31;59082;50.658;4.608;2023-07-29T09:04:13;28.35;79.20
71297;SHT31;59082;50.658;4.608;2023-07-29T09:06:39;32.12;75.80
71297;SHT31;59082;50.658;4.608;2023-07-29T09:09:08;33.96;71.75
71297;SHT31;59082;50.658;4.608;2023-07-29T09:11:34;31.44;74.87
71297;SHT31;59082;50.658;4.608;2023-07-29T09:14:00;36.72;69.99
71297;SHT31;59082;50.658;4.608;2023-07-29T09:16:25;36.60;69.35
71297;SHT31;59082;50.658;4.608;2023-07-29T09:18:51;34.85;68.30
71297;SHT31;59082;50.658;4.608;2023-07-29T09:21:22;34.00;72.51
71297;SHT31;59082;50.658;4.608;2023-07-29T09:23:50;33.08;72.40
71297;SHT31;59082;50.658;4.608;2023-07-29T09:26:22;31.43;73.33
71297;SHT31;59082;50.658;4.608;2023-07-29T09:28:54;31.95;73.24
71297;SHT31;59082;50.658;4.608;2023-07-29T09:31:23;32.87;73.64
71297;SHT31;59082;50.658;4.608;2023-07-29T09:33:48;31.54;72.51
71297;SHT31;59082;50.658;4.608;2023-07-29T09:36:14;34.48;70.35
71297;SHT31;59082;50.658;4.608;2023-07-29T09:38:39;35.73;67.14
71297;SHT31;59082;50.658;4.608;2023-07-29T09:41:05;39.27;65.22
71297;SHT31;59082;50.658;4.608;2023-07-29T09:43:32;42.03;61.32
71297;SHT31;59082;50.658;4.608;2023-07-29T09:46:05;39.58;62.29
71297;SHT31;59082;50.658;4.608;2023-07-29T09:48:35;35.58;68.43
71297;SHT31;59082;50.658;4.608;2023-07-29T09:51:11;39.56;63.60
71297;SHT31;59082;50.658;4.608;2023-07-29T09:53:45;36.14;67.52
71297;SHT31;59082;50.658;4.608;2023-07-29T09:56:11;34.37;70.25
71297;SHT31;59082;50.658;4.608;2023-07-29T09:58:37;32.15;72.72
71297;SHT31;59082;50.658;4.608;2023-07-29T10:01:05;29.75;75.74
71297;SHT31;59082;50.658;4.608;2023-07-29T10:03:31;31.81;73.48
71297;SHT31;59082;50.658;4.608;2023-07-29T10:06:02;32.01;74.55
71297;SHT31;59082;50.658;4.608;2023-07-29T10:08:29;31.37;75.86
71297;SHT31;59082;50.658;4.608;2023-07-29T10:10:59;34.16;71.96
71297;SHT31;59082;50.658;4.608;2023-07-29T10:13:26;33.69;72.49
71297;SHT31;59082;50.658;4.608;2023-07-29T10:15:53;35.78;70.30
71297;SHT31;59082;50.658;4.608;2023-07-29T10:18:19;33.25;74.12
71297;SHT31;59082;50.658;4.608;2023-07-29T10:20:46;39.19;65.96
71297;SHT31;59082;50.658;4.608;2023-07-29T10:23:14;44.15;59.03
71297;SHT31;59082;50.658;4.608;2023-07-29T10:25:47;37.00;67.28
71297;SHT31;59082;50.658;4.608;2023-07-29T10:28:12;35.81;70.56
71297;SHT31;59082;50.658;4.608;2023-07-29T10:30:41;35.32;70.33
71297;SHT31;59082;50.658;4.608;2023-07-29T10:33:07;33.06;72.77
71297;SHT31;59082;50.658;4.608;2023-07-29T10:35:33;34.06;72.84
71297;SHT31;59082;50.658;4.608;2023-07-29T10:37:59;34.20;71.90
71297;SHT31;59082;50.658;4.608;2023-07-29T10:40:25;37.27;66.92
71297;SHT31;59082;50.658;4.608;2023-07-29T10:43:01;33.76;70.87
71297;SHT31;59082;50.658;4.608;2023-07-29T10:45:36;32.33;73.39
71297;SHT31;59082;50.658;4.608;2023-07-29T10:48:06;31.18;76.35
71297;SHT31;59082;50.658;4.608;2023-07-29T10:50:31;29.93;76.24
71297;SHT31;59082;50.658;4.608;2023-07-29T10:52:57;34.67;71.52
71297;SHT31;59082;50.658;4.608;2023-07-29T10:55:28;44.58;61.82
71297;SHT31;59082;50.658;4.608;2023-07-29T10:58:22;38.88;64.43
71297;SHT31;59082;50.658;4.608;2023-07-29T11:00:49;34.85;69.48
71297;SHT31;59082;50.658;4.608;2023-07-29T11:03:14;33.59;71.49
71297;SHT31;59082;50.658;4.608;2023-07-29T11:05:48;32.90;72.55
71297;SHT31;59082;50.658;4.608;2023-07-29T11:08:28;32.31;74.05
71297;SHT31;59082;50.658;4.608;2023-07-29T11:10:58;30.88;75.10
71297;SHT31;59082;50.658;4.608;2023-07-29T11:13:26;28.72;75.18
71297;SHT31;59082;50.658;4.608;2023-07-29T11:15:53;28.17;77.67
71297;SHT31;59082;50.658;4.608;2023-07-29T11:18:20;27.74;79.88
71297;SHT31;59082;50.658;4.608;2023-07-29T11:20:46;26.35;81.82
71297;SHT31;59082;50.658;4.608;2023-07-29T11:23:13;24.81;99.99
71297;SHT31;59082;50.658;4.608;2023-07-29T11:25:39;26.92;99.99
71297;SHT31;59082;50.658;4.608;2023-07-29T11:28:04;27.76;99.99
71297;SHT31;59082;50.658;4.608;2023-07-29T11:30:30;55.97;76.95
71297;SHT31;59082;50.658;4.608;2023-07-29T11:32:58;57.26;75.05
71297;SHT31;59082;50.658;4.608;2023-07-29T11:35:24;61.41;77.40
71297;SHT31;59082;50.658;4.608;2023-07-29T11:37:51;49.45;69.37
71297;SHT31;59082;50.658;4.608;2023-07-29T11:40:20;45.58;78.46
71297;SHT31;59082;50.658;4.608;2023-07-29T11:42:47;46.72;81.86
71297;SHT31;59082;50.658;4.608;2023-07-29T11:45:14;38.68;81.01
71297;SHT31;59082;50.658;4.608;2023-07-29T11:47:40;38.13;87.35
71297;SHT31;59082;50.658;4.608;2023-07-29T11:50:11;35.95;84.64
71297;SHT31;59082;50.658;4.608;2023-07-29T11:52:40;38.86;85.85
71297;SHT31;59082;50.658;4.608;2023-07-29T11:55:06;36.02;89.53
71297;SHT31;59082;50.658;4.608;2023-07-29T11:57:37;30.33;84.14
71297;SHT31;59082;50.658;4.608;2023-07-29T12:00:04;31.34;87.89
71297;SHT31;59082;50.658;4.608;2023-07-29T12:02:32;31.60;92.20
71297;SHT31;59082;50.658;4.608;2023-07-29T12:04:58;35.06;86.90
71297;SHT31;59082;50.658;4.608;2023-07-29T12:07:24;37.87;83.31
71297;SHT31;59082;50.658;4.608;2023-07-29T12:09:50;37.59;93.08
71297;SHT31;59082;50.658;4.608;2023-07-29T12:12:16;41.82;80.50
71297;SHT31;59082;50.658;4.608;2023-07-29T12:14:47;45.39;86.39
71297;SHT31;59082;50.658;4.608;2023-07-29T12:17:13;46.78;60.12
71297;SHT31;59082;50.658;4.608;2023-07-29T12:19:40;44.84;61.60
71297;SHT31;59082;50.658;4.608;2023-07-29T12:22:07;50.01;56.80
71297;SHT31;59082;50.658;4.608;2023-07-29T12:24:35;50.01;54.80
71297;SHT31;59082;50.658;4.608;2023-07-29T12:27:01;48.10;55.67
71297;SHT31;59082;50.658;4.608;2023-07-29T12:29:27;45.49;60.96
71297;SHT31;59082;50.658;4.608;2023-07-29T12:31:58;41.32;61.36
71297;SHT31;59082;50.658;4.608;2023-07-29T12:34:25;40.27;63.06
71297;SHT31;59082;50.658;4.608;2023-07-29T12:36:52;40.90;62.29
71297;SHT31;59082;50.658;4.608;2023-07-29T12:39:28;42.10;61.30
71297;SHT31;59082;50.658;4.608;2023-07-29T12:41:56;45.62;58.07
71297;SHT31;59082;50.658;4.608;2023-07-29T12:44:30;44.18;59.48
71297;SHT31;59082;50.658;4.608;2023-07-29T12:46:56;46.68;55.85
71297;SHT31;59082;50.658;4.608;2023-07-29T12:49:21;48.51;54.59
71297;SHT31;59082;50.658;4.608;2023-07-29T12:51:47;47.98;55.91
71297;SHT31;59082;50.658;4.608;2023-07-29T12:54:13;39.61;61.81
71297;SHT31;59082;50.658;4.608;2023-07-29T12:56:39;40.82;62.73
71297;SHT31;59082;50.658;4.608;2023-07-29T12:59:05;42.17;62.21
71297;SHT31;59082;50.658;4.608;2023-07-29T13:01:31;39.64;64.31
71297;SHT31;59082;50.658;4.608;2023-07-29T13:03:56;40.19;62.35
71297;SHT31;59082;50.658;4.608;2023-07-29T13:06:22;46.12;58.55
71297;SHT31;59082;50.658;4.608;2023-07-29T13:08:49;50.70;54.45
71297;SHT31;59082;50.658;4.608;2023-07-29T13:11:15;47.91;57.02
71297;SHT31;59082;50.658;4.608;2023-07-29T13:13:40;44.21;59.28
71297;SHT31;59082;50.658;4.608;2023-07-29T13:16:06;52.81;52.48
71297;SHT31;59082;50.658;4.608;2023-07-29T13:18:32;52.85;53.03
71297;SHT31;59082;50.658;4.608;2023-07-29T13:20:58;51.93;53.00
71297;SHT31;59082;50.658;4.608;2023-07-29T13:23:25;42.76;59.17
71297;SHT31;59082;50.658;4.608;2023-07-29T13:25:50;38.47;63.05
71297;SHT31;59082;50.658;4.608;2023-07-29T13:28:16;36.36;67.38
71297;SHT31;59082;50.658;4.608;2023-07-29T13:30:41;34.51;69.69
71297;SHT31;59082;50.658;4.608;2023-07-29T13:33:07;33.41;76.31
71297;SHT31;59082;50.658;4.608;2023-07-29T13:35:33;32.53;77.81
71297;SHT31;59082;50.658;4.608;2023-07-29T13:37:59;32.57;76.05
71297;SHT31;59082;50.658;4.608;2023-07-29T13:40:24;32.77;75.25
71297;SHT31;59082;50.658;4.608;2023-07-29T13:42:50;33.38;75.83
71297;SHT31;59082;50.658;4.608;2023-07-29T13:45:15;35.37;71.06
71297;SHT31;59082;50.658;4.608;2023-07-29T13:47:41;36.29;69.62
71297;SHT31;59082;50.658;4.608;2023-07-29T13:50:07;37.66;68.44
71297;SHT31;59082;50.658;4.608;2023-07-29T13:52:36;36.45;70.38
71297;SHT31;59082;50.658;4.608;2023-07-29T13:55:02;35.67;70.47
71297;SHT31;59082;50.658;4.608;2023-07-29T13:57:28;35.22;69.65
71297;SHT31;59082;50.658;4.608;2023-07-29T13:59:53;36.04;69.77
71297;SHT31;59082;50.658;4.608;2023-07-29T14:02:19;35.70;68.97
71297;SHT31;59082;50.658;4.608;2023-07-29T14:04:44;37.62;67.21
71297;SHT31;59082;50.658;4.608;2023-07-29T14:07:10;43.53;60.26
71297;SHT31;59082;50.658;4.608;2023-07-29T14:09:35;46.61;57.27
71297;SHT31;59082;50.658;4.608;2023-07-29T14:12:00;40.38;62.11
71297;SHT31;59082;50.658;4.608;2023-07-29T14:14:26;45.69;58.07
71297;SHT31;59082;50.658;4.608;2023-07-29T14:16:51;44.33;59.34
71297;SHT31;59082;50.658;4.608;2023-07-29T14:19:17;44.02;59.51
71297;SHT31;59082;50.658;4.608;2023-07-29T14:21:43;41.00;61.58
71297;SHT31;59082;50.658;4.608;2023-07-29T14:24:08;40.18;63.15
71297;SHT31;59082;50.658;4.608;2023-07-29T14:26:34;36.52;65.23
71297;SHT31;59082;50.658;4.608;2023-07-29T14:28:59;34.47;69.48
71297;SHT31;59082;50.658;4.608;2023-07-29T14:31:24;32.31;72.33
71297;SHT31;59082;50.658;4.608;2023-07-29T14:33:50;31.84;75.24
71297;SHT31;59082;50.658;4.608;2023-07-29T14:36:16;30.78;77.76
71297;SHT31;59082;50.658;4.608;2023-07-29T14:38:41;31.56;77.84
71297;SHT31;59082;50.658;4.608;2023-07-29T14:41:11;30.21;77.05
71297;SHT31;59082;50.658;4.608;2023-07-29T14:43:38;31.53;77.94
71297;SHT31;59082;50.658;4.608;2023-07-29T14:46:03;30.95;78.32
71297;SHT31;59082;50.658;4.608;2023-07-29T14:48:29;30.09;79.20
71297;SHT31;59082;50.658;4.608;2023-07-29T14:50:54;29.45;79.01
71297;SHT31;59082;50.658;4.608;2023-07-29T14:53:21;29.30;81.03
71297;SHT31;59082;50.658;4.608;2023-07-29T14:55:46;30.95;79.48
71297;SHT31;59082;50.658;4.608;2023-07-29T14:58:12;31.81;77.06
71297;SHT31;59082;50.658;4.608;2023-07-29T15:00:37;31.80;76.44
71297;SHT31;59082;50.658;4.608;2023-07-29T15:03:03;32.28;73.80
71297;SHT31;59082;50.658;4.608;2023-07-29T15:05:28;32.48;73.41
71297;SHT31;59082;50.658;4.608;2023-07-29T15:07:54;39.50;65.69
71297;SHT31;59082;50.658;4.608;2023-07-29T15:10:20;39.13;64.74
71297;SHT31;59082;50.658;4.608;2023-07-29T15:12:46;40.45;64.03
71297;SHT31;59082;50.658;4.608;2023-07-29T15:15:12;41.43;62.73
71297;SHT31;59082;50.658;4.608;2023-07-29T15:17:38;39.44;64.24
71297;SHT31;59082;50.658;4.608;2023-07-29T15:20:04;36.97;65.04
71297;SHT31;59082;50.658;4.608;2023-07-29T15:22:30;36.57;65.26
71297;SHT31;59082;50.658;4.608;2023-07-29T15:24:58;35.22;66.01
71297;SHT31;59082;50.658;4.608;2023-07-29T15:27:28;32.86;70.18
71297;SHT31;59082;50.658;4.608;2023-07-29T15:29:53;31.85;72.02
71297;SHT31;59082;50.658;4.608;2023-07-29T15:32:19;31.09;73.36
71297;SHT31;59082;50.658;4.608;2023-07-29T15:34:45;37.68;66.54
71297;SHT31;59082;50.658;4.608;2023-07-29T15:37:11;37.89;64.29
71297;SHT31;59082;50.658;4.608;2023-07-29T15:39:37;38.33;66.16
71297;SHT31;59082;50.658;4.608;2023-07-29T15:42:02;38.61;65.43
71297;SHT31;59082;50.658;4.608;2023-07-29T15:44:28;37.06;66.01
71297;SHT31;59082;50.658;4.608;2023-07-29T15:46:53;38.60;64.78
71297;SHT31;59082;50.658;4.608;2023-07-29T15:49:20;35.39;67.15
71297;SHT31;59082;50.658;4.608;2023-07-29T15:51:46;35.51;66.22
71297;SHT31;59082;50.658;4.608;2023-07-29T15:54:12;36.43;66.35
71297;SHT31;59082;50.658;4.608;2023-07-29T15:56:37;37.97;65.27
71297;SHT31;59082;50.658;4.608;2023-07-29T15:59:04;36.84;66.54
71297;SHT31;59082;50.658;4.608;2023-07-29T16:01:29;35.06;67.49
71297;SHT31;59082;50.658;4.608;2023-07-29T16:03:55;34.72;68.11
71297;SHT31;59082;50.658;4.608;2023-07-29T16:06:21;32.52;71.45
71297;SHT31;59082;50.658;4.608;2023-07-29T16:08:46;31.70;73.81
71297;SHT31;59082;50.658;4.608;2023-07-29T16:11:12;33.37;70.39
71297;SHT31;59082;50.658;4.608;2023-07-29T16:13:37;33.65;69.88
71297;SHT31;59082;50.658;4.608;2023-07-29T16:16:03;35.85;68.78
71297;SHT31;59082;50.658;4.608;2023-07-29T16:18:30;36.98;66.19
71297;SHT31;59082;50.658;4.608;2023-07-29T16:20:55;36.46;65.71
71297;SHT31;59082;50.658;4.608;2023-07-29T16:23:27;33.72;69.10
71297;SHT31;59082;50.658;4.608;2023-07-29T16:25:53;33.41;69.96
71297;SHT31;59082;50.658;4.608;2023-07-29T16:28:19;34.09;70.06
71297;SHT31;59082;50.658;4.608;2023-07-29T16:30:44;31.54;72.23
71297;SHT31;59082;50.658;4.608;2023-07-29T16:33:10;30.68;74.03
71297;SHT31;59082;50.658;4.608;2023-07-29T16:35:35;30.24;74.27
71297;SHT31;59082;50.658;4.608;2023-07-29T16:38:01;29.31;76.92
71297;SHT31;59082;50.658;4.608;2023-07-29T16:40:26;29.39;78.24
71297;SHT31;59082;50.658;4.608;2023-07-29T16:42:52;29.80;76.59
71297;SHT31;59082;50.658;4.608;2023-07-29T16:45:17;29.88;77.27
71297;SHT31;59082;50.658;4.608;2023-07-29T16:47:43;29.76;76.59
71297;SHT31;59082;50.658;4.608;2023-07-29T16:50:08;29.85;76.83
71297;SHT31;59082;50.658;4.608;2023-07-29T16:52:35;29.45;77.86
71297;SHT31;59082;50.658;4.608;2023-07-29T16:55:01;28.89;78.51
71297;SHT31;59082;50.658;4.608;2023-07-29T16:57:26;28.72;78.30
71297;SHT31;59082;50.658;4.608;2023-07-29T16:59:52;28.49;79.38
71297;SHT31;59082;50.658;4.608;2023-07-29T17:02:17;27.69;81.60
71297;SHT31;59082;50.658;4.608;2023-07-29T17:04:43;28.00;81.98
71297;SHT31;59082;50.658;4.608;2023-07-29T17:07:09;27.01;80.85
71297;SHT31;59082;50.658;4.608;2023-07-29T17:09:34;27.19;82.27
71297;SHT31;59082;50.658;4.608;2023-07-29T17:11:59;27.07;82.90
71297;SHT31;59082;50.658;4.608;2023-07-29T17:14:26;26.97;81.69
71297;SHT31;59082;50.658;4.608;2023-07-29T17:16:52;27.35;80.88
71297;SHT31;59082;50.658;4.608;2023-07-29T17:19:18;27.87;81.06
71297;SHT31;59082;50.658;4.608;2023-07-29T17:21:44;27.59;80.36
71297;SHT31;59082;50.658;4.608;2023-07-29T17:24:09;27.34;81.14
71297;SHT31;59082;50.658;4.608;2023-07-29T17:26:35;27.41;81.34
71297;SHT31;59082;50.658;4.608;2023-07-29T17:29:00;27.46;81.38
71297;SHT31;59082;50.658;4.608;2023-07-29T17:31:25;27.34;81.55
71297;SHT31;59082;50.658;4.608;2023-07-29T17:33:51;27.39;82.41
71297;SHT31;59082;50.658;4.608;2023-07-29T17:36:16;27.53;81.94
71297;SHT31;59082;50.658;4.608;2023-07-29T17:38:42;27.14;82.03
71297;SHT31;59082;50.658;4.608;2023-07-29T17:41:08;27.19;80.33
71297;SHT31;59082;50.658;4.608;2023-07-29T17:43:34;26.97;79.58
71297;SHT31;59082;50.658;4.608;2023-07-29T17:45:59;26.87;78.95
71297;SHT31;59082;50.658;4.608;2023-07-29T17:48:24;26.64;78.25
71297;SHT31;59082;50.658;4.608;2023-07-29T17:50:50;26.54;78.61
71297;SHT31;59082;50.658;4.608;2023-07-29T17:53:15;26.71;78.20
71297;SHT31;59082;50.658;4.608;2023-07-29T17:55:41;27.01;77.22
71297;SHT31;59082;50.658;4.608;2023-07-29T17:58:06;26.28;77.22
71297;SHT31;59082;50.658;4.608;2023-07-29T18:00:32;25.95;78.30
71297;SHT31;59082;50.658;4.608;2023-07-29T18:02:58;26.12;77.72
71297;SHT31;59082;50.658;4.608;2023-07-29T18:05:23;26.12;78.38
71297;SHT31;59082;50.658;4.608;2023-07-29T18:07:49;26.09;78.66
71297;SHT31;59082;50.658;4.608;2023-07-29T18:10:15;25.91;79.09
71297;SHT31;59082;50.658;4.608;2023-07-29T18:12:40;25.86;78.50
71297;SHT31;59082;50.658;4.608;2023-07-29T18:15:08;25.36;78.46
71297;SHT31;59082;50.658;4.608;2023-07-29T18:17:34;25.43;78.25
71297;SHT31;59082;50.658;4.608;2023-07-29T18:20:00;25.22;79.55
71297;SHT31;59082;50.658;4.608;2023-07-29T18:22:26;25.64;77.98
71297;SHT31;59082;50.658;4.608;2023-07-29T18:24:51;25.48;77.26
71297;SHT31;59082;50.658;4.608;2023-07-29T18:27:16;25.57;76.87
71297;SHT31;59082;50.658;4.608;2023-07-29T18:29:42;27.07;74.73
71297;SHT31;59082;50.658;4.608;2023-07-29T18:32:07;25.80;77.56
71297;SHT31;59082;50.658;4.608;2023-07-29T18:34:33;25.86;77.92
71297;SHT31;59082;50.658;4.608;2023-07-29T18:36:58;25.43;77.26
71297;SHT31;59082;50.658;4.608;2023-07-29T18:39:24;25.74;77.58
71297;SHT31;59082;50.658;4.608;2023-07-29T18:41:49;25.53;78.23
71297;SHT31;59082;50.658;4.608;2023-07-29T18:44:15;25.36;77.95
71297;SHT31;59082;50.658;4.608;2023-07-29T18:46:40;25.31;78.75
71297;SHT31;59082;50.658;4.608;2023-07-29T18:49:06;24.62;79.11
71297;SHT31;59082;50.658;4.608;2023-07-29T18:51:33;24.60;78.86
71297;SHT31;59082;50.658;4.608;2023-07-29T18:54:03;24.82;78.58
71297;SHT31;59082;50.658;4.608;2023-07-29T18:56:29;24.83;79.36
71297;SHT31;59082;50.658;4.608;2023-07-29T18:58:54;24.67;80.38
71297;SHT31;59082;50.658;4.608;2023-07-29T19:01:20;24.25;81.30
71297;SHT31;59082;50.658;4.608;2023-07-29T19:03:49;24.16;81.27
71297;SHT31;59082;50.658;4.608;2023-07-29T19:06:15;23.47;81.56
71297;SHT31;59082;50.658;4.608;2023-07-29T19:08:40;23.49;82.31
71297;SHT31;59082;50.658;4.608;2023-07-29T19:11:06;23.34;81.96
71297;SHT31;59082;50.658;4.608;2023-07-29T19:13:31;23.24;82.33
71297;SHT31;59082;50.658;4.608;2023-07-29T19:15:57;23.27;83.23
71297;SHT31;59082;50.658;4.608;2023-07-29T19:18:23;23.20;83.34
71297;SHT31;59082;50.658;4.608;2023-07-29T19:20:52;22.77;83.45
71297;SHT31;59082;50.658;4.608;2023-07-29T19:23:21;22.77;82.47
71297;SHT31;59082;50.658;4.608;2023-07-29T19:25:48;22.84;81.73
71297;SHT31;59082;50.658;4.608;2023-07-29T19:28:15;22.96;81.14
71297;SHT31;59082;50.658;4.608;2023-07-29T19:30:40;22.79;81.76
71297;SHT31;59082;50.658;4.608;2023-07-29T19:33:06;22.57;82.32
71297;SHT31;59082;50.658;4.608;2023-07-29T19:35:32;22.31;84.20
71297;SHT31;59082;50.658;4.608;2023-07-29T19:37:57;22.11;82.13
71297;SHT31;59082;50.658;4.608;2023-07-29T19:40:23;22.34;82.38
71297;SHT31;59082;50.658;4.608;2023-07-29T19:42:54;22.12;84.24
71297;SHT31;59082;50.658;4.608;2023-07-29T19:45:20;22.02;84.65
71297;SHT31;59082;50.658;4.608;2023-07-29T19:47:46;22.00;83.94
71297;SHT31;59082;50.658;4.608;2023-07-29T19:50:12;21.83;84.80
71297;SHT31;59082;50.658;4.608;2023-07-29T19:52:38;21.66;85.17